Vailsburg, New Jersey
Current Conditions -  °F | °C
As of 11:51 AM on Monday 22 Dec 2014 (Local Time) from KEWR Reporting Station
Overcast Overcast  
Wind Chill: 34°   Ceiling: 900
Heat Index: 40°   Visibility: 9mi
Dew Point: 34°   Wind: 8mph
Humidity: 79%   Direction: 10°N
Pressure: 30.28"   Gusts: NA
Location:  40.742°N, 74.23°W
Report Text: KEWR 221651Z 01007KT 9SM BKN009 OVC012 04/01 A3028 RMK AO2 SLP254 T00440011
Loading
Personal Weather Stations






























Interactive Weather Map New forecast layout! Learn more

10-Day Weather Forecast

Advertisements
Track Severe Weather on mobile